createdAt,value
2019-03-26T00:00:10.821Z,5.852356
2019-03-26T00:00:22.574Z,5.832214
2019-03-26T00:00:34.357Z,5.832214
2019-03-26T00:00:46.104Z,5.832214
2019-03-26T00:00:57.860Z,5.832214
2019-03-26T00:01:09.614Z,5.832214
2019-03-26T00:01:21.396Z,5.852356
2019-03-26T00:01:33.134Z,5.852356
2019-03-26T00:01:44.901Z,5.862427
2019-03-26T00:01:56.678Z,5.852356
2019-03-26T00:02:08.435Z,5.862427
2019-03-26T00:02:20.188Z,5.882568
2019-03-26T00:02:31.979Z,5.882568
2019-03-26T00:02:43.755Z,5.882568
2019-03-26T00:02:55.554Z,5.882568
2019-03-26T00:03:07.392Z,5.892639
2019-03-26T00:03:19.079Z,5.882568
2019-03-26T00:03:30.839Z,5.892639
2019-03-26T00:03:42.614Z,5.882568
2019-03-26T00:04:05.073Z,5.882568
2019-03-26T00:04:07.118Z,5.862427
2019-03-26T00:04:19.003Z,5.882568
2019-03-26T00:04:30.652Z,5.862427
2019-03-26T00:04:42.403Z,5.862427
2019-03-26T00:04:54.149Z,5.882568
2019-03-26T00:05:05.925Z,5.882568
2019-03-26T00:05:17.699Z,5.892639
2019-03-26T00:05:29.488Z,5.882568
2019-03-26T00:05:41.245Z,5.862427
2019-03-26T00:05:53.044Z,5.882568
2019-03-26T00:06:04.819Z,5.892639
2019-03-26T00:06:16.609Z,5.892639
2019-03-26T00:06:28.400Z,5.892639
2019-03-26T00:06:40.164Z,5.892639
2019-03-26T00:06:51.949Z,5.882568
2019-03-26T00:07:03.690Z,5.882568
2019-03-26T00:07:15.466Z,5.892639
2019-03-26T00:07:27.280Z,5.892639
2019-03-26T00:07:39.014Z,5.892639
2019-03-26T00:07:50.816Z,5.912781
2019-03-26T00:08:02.597Z,5.892639
2019-03-26T00:08:14.369Z,5.892639
2019-03-26T00:08:26.115Z,5.882568
2019-03-26T00:08:37.891Z,5.892639
2019-03-26T00:08:49.645Z,5.882568
2019-03-26T00:09:01.416Z,5.882568
2019-03-26T00:09:13.207Z,5.852356
2019-03-26T00:09:24.967Z,5.832214
2019-03-26T00:09:36.729Z,5.822144
2019-03-26T00:09:48.528Z,5.822144
2019-03-26T00:10:00.406Z,5.812073
2019-03-26T00:10:13.097Z,5.812073
2019-03-26T00:10:24.877Z,5.812073
2019-03-26T00:10:36.664Z,5.812073
2019-03-26T00:10:48.469Z,5.78186
2019-03-26T00:11:00.229Z,5.78186
2019-03-26T00:11:12.010Z,5.812073
2019-03-26T00:11:23.767Z,5.78186
2019-03-26T00:11:35.515Z,5.78186
2019-03-26T00:11:47.290Z,5.812073
2019-03-26T00:11:59.072Z,5.812073
2019-03-26T00:12:10.826Z,5.78186
2019-03-26T00:12:22.583Z,5.812073
2019-03-26T00:12:34.374Z,5.812073
2019-03-26T00:12:46.190Z,5.812073
2019-03-26T00:12:57.951Z,5.812073
2019-03-26T00:13:09.696Z,5.812073
2019-03-26T00:13:21.447Z,5.822144
2019-03-26T00:13:33.220Z,5.822144
2019-03-26T00:13:45.040Z,5.812073
2019-03-26T00:13:57.917Z,5.822144
2019-03-26T00:14:09.571Z,5.78186
2019-03-26T00:14:21.369Z,5.78186
2019-03-26T00:14:33.148Z,5.812073
2019-03-26T00:14:44.909Z,5.812073
2019-03-26T00:14:56.676Z,5.812073
2019-03-26T00:15:08.436Z,5.812073
2019-03-26T00:15:20.206Z,5.812073
2019-03-26T00:15:31.970Z,5.812073
2019-03-26T00:15:43.728Z,5.78186
2019-03-26T00:15:55.476Z,5.78186
2019-03-26T00:16:07.258Z,5.78186
2019-03-26T00:16:19.167Z,5.78186
2019-03-26T00:16:31.056Z,5.78186
2019-03-26T00:16:42.951Z,5.78186
2019-03-26T00:16:54.860Z,5.78186
2019-03-26T00:17:06.749Z,5.77179
2019-03-26T00:17:18.666Z,5.77179
2019-03-26T00:17:30.601Z,5.77179
2019-03-26T00:17:42.427Z,5.77179
2019-03-26T00:17:54.177Z,5.77179
2019-03-26T00:18:06.074Z,5.751648
2019-03-26T00:18:17.835Z,5.77179
2019-03-26T00:18:29.594Z,5.741577
2019-03-26T00:18:41.374Z,5.741577
2019-03-26T00:18:53.151Z,5.751648
2019-03-26T00:19:04.905Z,5.751648
2019-03-26T00:19:16.663Z,5.741577
2019-03-26T00:19:28.424Z,5.741577
2019-03-26T00:19:40.211Z,5.741577
2019-03-26T00:19:51.974Z,5.751648
2019-03-26T00:20:03.749Z,5.741577
2019-03-26T00:20:15.527Z,5.731506
2019-03-26T00:20:27.299Z,5.741577
2019-03-26T00:20:39.048Z,5.731506
2019-03-26T00:20:50.790Z,5.731506
2019-03-26T00:21:02.599Z,5.731506
2019-03-26T00:21:14.383Z,5.741577
2019-03-26T00:21:26.145Z,5.731506
2019-03-26T00:21:37.927Z,5.731506
2019-03-26T00:21:49.699Z,5.741577
2019-03-26T00:22:01.503Z,5.741577
2019-03-26T00:22:13.256Z,5.731506
2019-03-26T00:22:25.044Z,5.731506
2019-03-26T00:22:36.835Z,5.741577
2019-03-26T00:22:48.641Z,5.711365
2019-03-26T00:23:00.442Z,5.731506
2019-03-26T00:23:12.210Z,5.711365
2019-03-26T00:23:23.961Z,5.731506
2019-03-26T00:23:35.885Z,5.731506
2019-03-26T00:23:47.680Z,5.731506
2019-03-26T00:23:59.423Z,5.731506
2019-03-26T00:24:11.185Z,5.731506
2019-03-26T00:24:23.033Z,5.741577
2019-03-26T00:24:34.746Z,5.751648
2019-03-26T00:24:46.505Z,5.741577
2019-03-26T00:24:58.292Z,5.77179
2019-03-26T00:25:10.063Z,5.751648
2019-03-26T00:25:21.825Z,5.751648
2019-03-26T00:25:33.604Z,5.77179
2019-03-26T00:25:45.372Z,5.77179
2019-03-26T00:25:58.151Z,5.78186
2019-03-26T00:26:09.920Z,5.751648
2019-03-26T00:26:21.702Z,5.78186
2019-03-26T00:26:33.468Z,5.77179
2019-03-26T00:26:45.251Z,5.77179
2019-03-26T00:26:57.022Z,5.77179
2019-03-26T00:27:08.810Z,5.77179
2019-03-26T00:27:20.551Z,5.78186
2019-03-26T00:27:32.321Z,5.78186
2019-03-26T00:27:44.096Z,5.78186
2019-03-26T00:27:55.855Z,5.78186
2019-03-26T00:28:07.646Z,5.78186
2019-03-26T00:28:19.398Z,5.78186
2019-03-26T00:28:39.950Z,5.77179
2019-03-26T00:28:51.699Z,5.78186
2019-03-26T00:29:03.480Z,5.78186
2019-03-26T00:29:15.269Z,5.78186
2019-03-26T00:29:27.073Z,5.78186
2019-03-26T00:29:38.826Z,5.77179
2019-03-26T00:29:50.578Z,5.78186
2019-03-26T00:30:02.371Z,5.78186
2019-03-26T00:30:14.130Z,5.78186
2019-03-26T00:30:25.942Z,5.78186
2019-03-26T00:30:37.714Z,5.78186
2019-03-26T00:30:49.462Z,5.812073
2019-03-26T00:31:01.233Z,5.812073
2019-03-26T00:31:13.009Z,5.78186
2019-03-26T00:31:24.799Z,5.78186
2019-03-26T00:31:36.564Z,5.78186
2019-03-26T00:31:48.343Z,5.78186
2019-03-26T00:32:00.117Z,5.78186
2019-03-26T00:32:11.887Z,5.812073
2019-03-26T00:32:24.668Z,5.78186
2019-03-26T00:32:36.424Z,5.78186
2019-03-26T00:32:48.290Z,5.812073
2019-03-26T00:32:59.978Z,5.812073
2019-03-26T00:33:11.720Z,5.812073
2019-03-26T00:33:35.606Z,5.812073
2019-03-26T00:33:37.185Z,5.78186
2019-03-26T00:33:48.922Z,5.812073
2019-03-26T00:34:00.697Z,5.812073
2019-03-26T00:34:18.947Z,5.78186
2019-03-26T00:34:25.140Z,5.812073
2019-03-26T00:34:36.921Z,5.78186
2019-03-26T00:34:48.710Z,5.812073
2019-03-26T00:35:00.480Z,5.812073
2019-03-26T00:35:12.221Z,5.822144
2019-03-26T00:35:24.020Z,5.822144
2019-03-26T00:35:35.781Z,5.822144
2019-03-26T00:35:47.569Z,5.822144
2019-03-26T00:35:59.338Z,5.822144
2019-03-26T00:36:11.119Z,5.822144
2019-03-26T00:36:22.889Z,5.812073
2019-03-26T00:36:34.660Z,5.822144
2019-03-26T00:36:46.455Z,5.822144
2019-03-26T00:36:58.222Z,5.822144
2019-03-26T00:37:10.029Z,5.822144
2019-03-26T00:37:21.788Z,5.832214
2019-03-26T00:37:33.547Z,5.832214
2019-03-26T00:37:45.305Z,5.832214
2019-03-26T00:37:57.093Z,5.852356
2019-03-26T00:38:08.869Z,5.862427
2019-03-26T00:38:20.631Z,5.852356
2019-03-26T00:38:32.417Z,5.852356
2019-03-26T00:38:44.215Z,5.852356
2019-03-26T00:38:55.893Z,5.852356
2019-03-26T00:39:07.673Z,5.862427
2019-03-26T00:39:19.420Z,5.852356
2019-03-26T00:39:31.183Z,5.852356
2019-03-26T00:39:42.966Z,5.862427
2019-03-26T00:39:54.762Z,5.862427
2019-03-26T00:40:06.674Z,5.862427
2019-03-26T00:40:18.417Z,5.892639
2019-03-26T00:40:30.198Z,5.882568
2019-03-26T00:40:41.952Z,5.892639
2019-03-26T00:40:53.702Z,5.892639
2019-03-26T00:41:05.492Z,5.892639
2019-03-26T00:41:17.245Z,5.892639
2019-03-26T00:41:29.003Z,5.892639
2019-03-26T00:41:40.758Z,5.882568
2019-03-26T00:41:52.528Z,5.882568
2019-03-26T00:42:04.319Z,5.892639
2019-03-26T00:42:16.097Z,5.922852
2019-03-26T00:42:27.842Z,5.892639
2019-03-26T00:42:39.597Z,5.892639
2019-03-26T00:42:51.362Z,5.912781
2019-03-26T00:43:03.103Z,5.892639
2019-03-26T00:43:15.895Z,5.892639
2019-03-26T00:43:27.644Z,5.892639
2019-03-26T00:43:39.400Z,5.892639
2019-03-26T00:43:51.173Z,5.892639
2019-03-26T00:44:02.919Z,5.892639
2019-03-26T00:44:14.677Z,5.892639
2019-03-26T00:44:26.498Z,5.912781
2019-03-26T00:44:38.205Z,5.892639
2019-03-26T00:44:49.989Z,5.892639
2019-03-26T00:45:01.892Z,5.912781
2019-03-26T00:45:13.658Z,5.892639
2019-03-26T00:45:25.399Z,5.892639
2019-03-26T00:45:37.162Z,5.912781
2019-03-26T00:45:48.964Z,5.892639
2019-03-26T00:46:00.707Z,5.892639
2019-03-26T00:46:12.515Z,5.882568
2019-03-26T00:46:24.268Z,5.882568
2019-03-26T00:46:36.032Z,5.882568
2019-03-26T00:46:47.805Z,5.882568
2019-03-26T00:46:59.568Z,5.852356
2019-03-26T00:47:11.333Z,5.832214
2019-03-26T00:47:23.116Z,5.852356
2019-03-26T00:47:34.906Z,5.832214
2019-03-26T00:47:46.673Z,5.852356
2019-03-26T00:47:58.445Z,5.852356
2019-03-26T00:48:10.196Z,5.852356
2019-03-26T00:48:21.999Z,5.832214
2019-03-26T00:48:33.767Z,5.852356
2019-03-26T00:48:45.547Z,5.832214
2019-03-26T00:48:57.306Z,5.822144
2019-03-26T00:49:09.085Z,5.812073
2019-03-26T00:49:20.858Z,5.78186
2019-03-26T00:49:32.627Z,5.822144
2019-03-26T00:49:44.382Z,5.78186
2019-03-26T00:49:56.160Z,5.78186
2019-03-26T00:50:08.078Z,5.812073
2019-03-26T00:50:19.844Z,5.812073
2019-03-26T00:50:31.603Z,5.78186
2019-03-26T00:50:43.369Z,5.78186
2019-03-26T00:50:55.144Z,5.812073
2019-03-26T00:51:06.924Z,5.812073
2019-03-26T00:51:18.713Z,5.812073
2019-03-26T00:51:30.472Z,5.812073
2019-03-26T00:51:42.270Z,5.78186
2019-03-26T00:51:54.024Z,5.77179
2019-03-26T00:52:05.811Z,5.751648
2019-03-26T00:52:17.590Z,5.741577
2019-03-26T00:52:29.337Z,5.741577
2019-03-26T00:52:41.117Z,5.741577
2019-03-26T00:52:52.919Z,5.741577
2019-03-26T00:53:04.668Z,5.731506
2019-03-26T00:53:16.438Z,5.711365
2019-03-26T00:53:28.236Z,5.701294
2019-03-26T00:53:40.008Z,5.701294
2019-03-26T00:53:51.778Z,5.711365
2019-03-26T00:54:03.530Z,5.681152
2019-03-26T00:54:15.422Z,5.681152
2019-03-26T00:54:27.200Z,5.681152
2019-03-26T00:54:38.932Z,5.701294
2019-03-26T00:54:50.710Z,5.681152
2019-03-26T00:55:02.499Z,5.671082
2019-03-26T00:55:22.259Z,5.701294
2019-03-26T00:55:27.018Z,5.671082
2019-03-26T00:55:38.778Z,5.671082
2019-03-26T00:55:50.547Z,5.661011
2019-03-26T00:56:02.321Z,5.661011
2019-03-26T00:56:14.092Z,5.661011
2019-03-26T00:56:25.836Z,5.661011
2019-03-26T00:56:37.633Z,5.640869
2019-03-26T00:56:49.407Z,5.640869
2019-03-26T00:57:01.215Z,5.630798
2019-03-26T00:57:12.978Z,5.630798
2019-03-26T00:57:24.744Z,5.630798
2019-03-26T00:57:36.520Z,5.600586
2019-03-26T00:57:48.306Z,5.590515
2019-03-26T00:58:01.725Z,5.590515
2019-03-26T00:58:12.806Z,5.560303
2019-03-26T00:58:24.595Z,5.550232
2019-03-26T00:58:36.349Z,5.560303
2019-03-26T00:58:48.124Z,5.53009
2019-03-26T00:58:59.879Z,5.52002
2019-03-26T00:59:11.664Z,5.53009
2019-03-26T00:59:23.512Z,5.52002
2019-03-26T00:59:35.214Z,5.499878
2019-03-26T00:59:46.978Z,5.489807
2019-03-26T00:59:58.770Z,5.479736
2019-03-26T01:00:10.580Z,5.459595
2019-03-26T01:00:22.340Z,5.459595
2019-03-26T01:00:34.090Z,5.459595
2019-03-26T01:00:45.861Z,5.449524
2019-03-26T01:00:57.615Z,5.449524
2019-03-26T01:01:09.369Z,5.449524
2019-03-26T01:01:21.130Z,5.429382
2019-03-26T01:01:32.880Z,5.429382
2019-03-26T01:01:44.642Z,5.409241
2019-03-26T01:01:56.454Z,5.379028
2019-03-26T01:02:08.208Z,5.368958
2019-03-26T01:02:19.964Z,5.368958
2019-03-26T01:02:31.724Z,5.348816
2019-03-26T01:02:43.489Z,5.348816
2019-03-26T01:02:55.300Z,5.338745
2019-03-26T01:03:07.058Z,5.318604
2019-03-26T01:03:18.831Z,5.318604
2019-03-26T01:03:30.597Z,5.308533
2019-03-26T01:03:42.385Z,5.308533
2019-03-26T01:03:55.285Z,5.308533
2019-03-26T01:04:06.924Z,5.298462
2019-03-26T01:04:31.745Z,5.308533
2019-03-26T01:04:32.898Z,5.298462
2019-03-26T01:04:43.176Z,5.298462
2019-03-26T01:04:54.969Z,5.27832
2019-03-26T01:05:06.722Z,5.27832
2019-03-26T01:05:18.472Z,5.26825
2019-03-26T01:05:30.259Z,5.248108
2019-03-26T01:05:42.017Z,5.26825
2019-03-26T01:05:53.761Z,5.26825
2019-03-26T01:06:05.549Z,5.248108
2019-03-26T01:06:17.316Z,5.227966
2019-03-26T01:06:29.110Z,5.227966
2019-03-26T01:06:40.872Z,5.248108
2019-03-26T01:06:52.659Z,5.217896
2019-03-26T01:07:04.411Z,5.227966
2019-03-26T01:07:16.154Z,5.227966
2019-03-26T01:07:27.927Z,5.227966
2019-03-26T01:07:39.718Z,5.248108
2019-03-26T01:07:51.478Z,5.227966
2019-03-26T01:08:03.237Z,5.227966
2019-03-26T01:08:15.006Z,5.248108
2019-03-26T01:08:26.779Z,5.248108
2019-03-26T01:08:38.547Z,5.227966
2019-03-26T01:08:50.309Z,5.227966
2019-03-26T01:09:02.076Z,5.248108
2019-03-26T01:09:13.867Z,5.227966
2019-03-26T01:09:25.631Z,5.227966
2019-03-26T01:09:37.375Z,5.248108
2019-03-26T01:09:49.138Z,5.227966
2019-03-26T01:10:00.880Z,5.227966
2019-03-26T01:10:12.648Z,5.227966
2019-03-26T01:10:24.413Z,5.227966
2019-03-26T01:10:36.189Z,5.217896
2019-03-26T01:10:47.982Z,5.248108
2019-03-26T01:10:59.764Z,5.248108
2019-03-26T01:11:11.510Z,5.248108
2019-03-26T01:11:23.245Z,5.26825
2019-03-26T01:11:35.002Z,5.26825
2019-03-26T01:11:46.796Z,5.26825
2019-03-26T01:11:58.557Z,5.248108
2019-03-26T01:12:10.311Z,5.26825
2019-03-26T01:12:22.224Z,5.26825
2019-03-26T01:12:34.008Z,5.248108
2019-03-26T01:12:45.758Z,5.26825
2019-03-26T01:12:57.532Z,5.26825
2019-03-26T01:13:09.340Z,5.26825
2019-03-26T01:13:21.105Z,5.248108
2019-03-26T01:13:32.884Z,5.248108
2019-03-26T01:13:44.665Z,5.248108
2019-03-26T01:13:56.439Z,5.248108
2019-03-26T01:14:08.204Z,5.227966
2019-03-26T01:14:20.007Z,5.227966
2019-03-26T01:14:31.744Z,5.227966
2019-03-26T01:14:43.494Z,5.227966
2019-03-26T01:14:55.243Z,5.227966
2019-03-26T01:15:07.007Z,5.248108
2019-03-26T01:15:18.750Z,5.227966
2019-03-26T01:15:30.508Z,5.227966
2019-03-26T01:15:42.278Z,5.248108
2019-03-26T01:15:54.060Z,5.248108
2019-03-26T01:16:05.835Z,5.227966
2019-03-26T01:16:17.679Z,5.227966
2019-03-26T01:16:29.386Z,5.227966
2019-03-26T01:16:42.136Z,5.217896
2019-03-26T01:16:53.915Z,5.227966
2019-03-26T01:17:05.684Z,5.197754
2019-03-26T01:17:17.451Z,5.197754
2019-03-26T01:17:29.285Z,5.197754
2019-03-26T01:17:41.062Z,5.217896
2019-03-26T01:17:52.844Z,5.197754
2019-03-26T01:18:04.627Z,5.197754
2019-03-26T01:18:16.398Z,5.197754
2019-03-26T01:18:28.153Z,5.187683
2019-03-26T01:18:39.963Z,5.187683
2019-03-26T01:18:51.728Z,5.187683
2019-03-26T01:19:03.513Z,5.187683
2019-03-26T01:19:15.289Z,5.167542
2019-03-26T01:19:27.095Z,5.187683
2019-03-26T01:19:38.870Z,5.187683
2019-03-26T01:19:50.678Z,5.187683
2019-03-26T01:20:02.468Z,5.187683
2019-03-26T01:20:14.256Z,5.187683
2019-03-26T01:20:26.010Z,5.187683
2019-03-26T01:20:37.769Z,5.187683
2019-03-26T01:20:49.546Z,5.187683
2019-03-26T01:21:01.297Z,5.167542
2019-03-26T01:21:13.073Z,5.187683
2019-03-26T01:21:24.839Z,5.167542
2019-03-26T01:21:36.592Z,5.167542
2019-03-26T01:21:48.383Z,5.157471
2019-03-26T01:22:00.148Z,5.167542
2019-03-26T01:22:11.893Z,5.157471
2019-03-26T01:22:23.668Z,5.167542
2019-03-26T01:22:35.446Z,5.167542
2019-03-26T01:22:47.232Z,5.167542
2019-03-26T01:22:59.006Z,5.167542
2019-03-26T01:23:10.754Z,5.167542
2019-03-26T01:23:22.576Z,5.167542
2019-03-26T01:23:34.365Z,5.167542
2019-03-26T01:23:46.136Z,5.167542
2019-03-26T01:23:57.909Z,5.167542
2019-03-26T01:24:09.704Z,5.187683
2019-03-26T01:24:21.476Z,5.187683
2019-03-26T01:24:33.218Z,5.187683
2019-03-26T01:24:44.976Z,5.187683
2019-03-26T01:24:56.752Z,5.197754
2019-03-26T01:25:08.509Z,5.217896
2019-03-26T01:25:20.294Z,5.197754
2019-03-26T01:25:32.060Z,5.197754
2019-03-26T01:25:43.789Z,5.197754
2019-03-26T01:25:55.539Z,5.197754
2019-03-26T01:26:07.337Z,5.217896
2019-03-26T01:26:19.147Z,5.197754
2019-03-26T01:26:30.925Z,5.197754
2019-03-26T01:26:42.684Z,5.197754
2019-03-26T01:26:54.445Z,5.197754
2019-03-26T01:27:06.222Z,5.217896
2019-03-26T01:27:18.012Z,5.217896
2019-03-26T01:27:29.797Z,5.217896
2019-03-26T01:27:41.567Z,5.227966
2019-03-26T01:27:53.384Z,5.217896
2019-03-26T01:28:05.133Z,5.217896
2019-03-26T01:28:16.925Z,5.227966
2019-03-26T01:28:28.698Z,5.227966
2019-03-26T01:28:40.458Z,5.248108
2019-03-26T01:28:52.254Z,5.26825
2019-03-26T01:29:04.031Z,5.26825
2019-03-26T01:29:15.790Z,5.26825
2019-03-26T01:29:27.607Z,5.26825
2019-03-26T01:29:39.352Z,5.26825
2019-03-26T01:29:51.101Z,5.26825
2019-03-26T01:30:02.872Z,5.298462
2019-03-26T01:30:14.636Z,5.27832
2019-03-26T01:30:26.434Z,5.27832
2019-03-26T01:30:38.228Z,5.26825
2019-03-26T01:30:49.976Z,5.26825
2019-03-26T01:31:01.751Z,5.27832
2019-03-26T01:31:13.515Z,5.27832
2019-03-26T01:31:25.300Z,5.27832
2019-03-26T01:31:37.075Z,5.27832
2019-03-26T01:31:48.854Z,5.26825
2019-03-26T01:32:00.626Z,5.27832
2019-03-26T01:32:12.408Z,5.298462
2019-03-26T01:32:24.156Z,5.27832
2019-03-26T01:32:35.951Z,5.27832
2019-03-26T01:32:47.741Z,5.27832
2019-03-26T01:32:59.517Z,5.27832
2019-03-26T01:33:11.280Z,5.27832
2019-03-26T01:33:23.054Z,5.27832
2019-03-26T01:33:34.861Z,5.27832
2019-03-26T01:33:46.658Z,5.27832
2019-03-26T01:33:58.438Z,5.298462
2019-03-26T01:34:10.173Z,5.298462
2019-03-26T01:34:21.990Z,5.27832
2019-03-26T01:34:45.375Z,5.298462
2019-03-26T01:34:47.464Z,5.298462
2019-03-26T01:34:59.265Z,5.298462
2019-03-26T01:35:11.023Z,5.27832
2019-03-26T01:35:22.786Z,5.308533
2019-03-26T01:35:34.552Z,5.318604
2019-03-26T01:35:46.359Z,5.318604
2019-03-26T01:35:58.123Z,5.308533
2019-03-26T01:36:09.877Z,5.308533
2019-03-26T01:36:21.656Z,5.318604
2019-03-26T01:36:33.440Z,5.348816
2019-03-26T01:36:45.208Z,5.338745
2019-03-26T01:36:56.972Z,5.318604
2019-03-26T01:37:08.741Z,5.318604
2019-03-26T01:37:20.516Z,5.318604
2019-03-26T01:37:32.256Z,5.338745
2019-03-26T01:37:44.044Z,5.318604
2019-03-26T01:37:55.808Z,5.338745
2019-03-26T01:38:07.612Z,5.318604
2019-03-26T01:38:19.374Z,5.338745
2019-03-26T01:38:31.150Z,5.338745
2019-03-26T01:38:42.943Z,5.338745
2019-03-26T01:38:54.731Z,5.338745
2019-03-26T01:39:06.514Z,5.338745
2019-03-26T01:39:18.311Z,5.338745
2019-03-26T01:39:30.103Z,5.338745
2019-03-26T01:39:41.881Z,5.338745
2019-03-26T01:39:53.685Z,5.338745
2019-03-26T01:40:05.442Z,5.338745
2019-03-26T01:40:17.216Z,5.338745
2019-03-26T01:40:28.972Z,5.318604
2019-03-26T01:40:40.729Z,5.318604
2019-03-26T01:40:52.514Z,5.318604
2019-03-26T01:41:04.290Z,5.348816
2019-03-26T01:41:16.044Z,5.338745
2019-03-26T01:41:27.806Z,5.338745
2019-03-26T01:41:39.572Z,5.348816
2019-03-26T01:41:51.313Z,5.368958
2019-03-26T01:42:03.071Z,5.368958
2019-03-26T01:42:14.847Z,5.368958
2019-03-26T01:42:26.621Z,5.379028
2019-03-26T01:42:38.398Z,5.368958
2019-03-26T01:42:50.142Z,5.379028
2019-03-26T01:43:01.921Z,5.379028
2019-03-26T01:43:13.711Z,5.39917
2019-03-26T01:43:25.484Z,5.39917
2019-03-26T01:43:37.241Z,5.39917
2019-03-26T01:43:49.035Z,5.39917
2019-03-26T01:44:00.801Z,5.39917
2019-03-26T01:44:12.583Z,5.409241
2019-03-26T01:44:24.419Z,5.39917
2019-03-26T01:44:36.164Z,5.39917
2019-03-26T01:44:47.950Z,5.409241
2019-03-26T01:44:59.726Z,5.409241
2019-03-26T01:45:11.504Z,5.409241
2019-03-26T01:45:23.243Z,5.409241
2019-03-26T01:45:35.030Z,5.409241
2019-03-26T01:45:46.809Z,5.429382
2019-03-26T01:45:58.595Z,5.449524
2019-03-26T01:46:10.410Z,5.429382
2019-03-26T01:46:22.156Z,5.449524
2019-03-26T01:46:33.921Z,5.449524
2019-03-26T01:46:45.690Z,5.459595
2019-03-26T01:46:57.480Z,5.459595
2019-03-26T01:47:09.243Z,5.459595
2019-03-26T01:47:21.028Z,5.479736
2019-03-26T01:47:32.796Z,5.479736
2019-03-26T01:47:44.594Z,5.479736
2019-03-26T01:47:56.383Z,5.499878
2019-03-26T01:48:08.145Z,5.489807
2019-03-26T01:48:19.911Z,5.499878
2019-03-26T01:48:31.682Z,5.499878
2019-03-26T01:48:43.463Z,5.52002
2019-03-26T01:48:55.227Z,5.52002
2019-03-26T01:49:06.989Z,5.52002
2019-03-26T01:49:18.770Z,5.53009
2019-03-26T01:49:30.547Z,5.550232
2019-03-26T01:49:42.317Z,5.550232
2019-03-26T01:49:54.098Z,5.550232
2019-03-26T01:50:05.908Z,5.550232
2019-03-26T01:50:17.671Z,5.570374
2019-03-26T01:50:29.440Z,5.560303
2019-03-26T01:50:41.220Z,5.570374
2019-03-26T01:50:52.990Z,5.560303
2019-03-26T01:51:04.833Z,5.570374
2019-03-26T01:51:16.581Z,5.570374
2019-03-26T01:51:28.333Z,5.570374
2019-03-26T01:51:40.085Z,5.590515
2019-03-26T01:51:51.830Z,5.590515
2019-03-26T01:52:03.593Z,5.600586
2019-03-26T01:52:15.366Z,5.600586
2019-03-26T01:52:27.158Z,5.590515
2019-03-26T01:52:38.955Z,5.590515
2019-03-26T01:52:50.712Z,5.600586
2019-03-26T01:53:02.487Z,5.630798
2019-03-26T01:53:14.258Z,5.630798
2019-03-26T01:53:26.001Z,5.630798
2019-03-26T01:53:37.755Z,5.630798
2019-03-26T01:53:49.572Z,5.640869
2019-03-26T01:54:01.354Z,5.661011
2019-03-26T01:54:13.108Z,5.661011
2019-03-26T01:54:24.893Z,5.661011
2019-03-26T01:54:36.657Z,5.671082
2019-03-26T01:54:48.399Z,5.661011
2019-03-26T01:55:00.380Z,5.661011
2019-03-26T01:55:11.950Z,5.671082
2019-03-26T01:55:23.725Z,5.681152
2019-03-26T01:55:35.534Z,5.681152
2019-03-26T01:55:47.316Z,5.701294
2019-03-26T01:55:59.082Z,5.681152
2019-03-26T01:56:10.861Z,5.701294
2019-03-26T01:56:22.627Z,5.701294
2019-03-26T01:56:34.507Z,5.681152
2019-03-26T01:56:46.279Z,5.701294
2019-03-26T01:56:58.073Z,5.681152
2019-03-26T01:57:09.859Z,5.701294
2019-03-26T01:57:21.612Z,5.711365
2019-03-26T01:57:33.393Z,5.681152
2019-03-26T01:57:45.148Z,5.701294
2019-03-26T01:57:56.909Z,5.711365
2019-03-26T01:58:08.693Z,5.711365
2019-03-26T01:58:20.474Z,5.731506
2019-03-26T01:58:32.236Z,5.731506
2019-03-26T01:58:43.999Z,5.711365
2019-03-26T01:58:55.784Z,5.711365
2019-03-26T01:59:07.540Z,5.731506
2019-03-26T01:59:19.322Z,5.731506
2019-03-26T01:59:31.106Z,5.741577
2019-03-26T01:59:42.889Z,5.731506
2019-03-26T01:59:54.663Z,5.741577
2019-03-26T02:00:06.446Z,5.741577
2019-03-26T02:00:18.230Z,5.741577
2019-03-26T02:00:30.004Z,5.741577
2019-03-26T02:00:41.772Z,5.741577
2019-03-26T02:00:53.561Z,5.741577
2019-03-26T02:01:05.313Z,5.731506
2019-03-26T02:01:17.094Z,5.731506
2019-03-26T02:01:28.883Z,5.741577
2019-03-26T02:01:40.799Z,5.741577
2019-03-26T02:01:52.569Z,5.741577
2019-03-26T02:02:04.352Z,5.711365
2019-03-26T02:02:16.144Z,5.731506
2019-03-26T02:02:27.888Z,5.731506
2019-03-26T02:02:39.662Z,5.731506
2019-03-26T02:02:51.409Z,5.731506
2019-03-26T02:03:03.170Z,5.711365
2019-03-26T02:03:14.934Z,5.731506
2019-03-26T02:03:26.683Z,5.711365
2019-03-26T02:03:38.446Z,5.711365
2019-03-26T02:03:50.220Z,5.711365
2019-03-26T02:04:01.992Z,5.711365
2019-03-26T02:04:13.781Z,5.711365
2019-03-26T02:04:25.595Z,5.711365
2019-03-26T02:04:37.378Z,5.711365
2019-03-26T02:04:59.584Z,5.711365
2019-03-26T02:05:01.871Z,5.701294
2019-03-26T02:05:13.621Z,5.701294
2019-03-26T02:05:25.362Z,5.701294
2019-03-26T02:05:37.147Z,5.681152
2019-03-26T02:05:48.939Z,5.701294
2019-03-26T02:06:00.695Z,5.701294
2019-03-26T02:06:12.494Z,5.681152
2019-03-26T02:06:24.253Z,5.681152
2019-03-26T02:06:36.058Z,5.701294
2019-03-26T02:06:47.822Z,5.681152
2019-03-26T02:06:59.573Z,5.681152
2019-03-26T02:07:11.360Z,5.681152
2019-03-26T02:07:23.133Z,5.681152
2019-03-26T02:07:34.896Z,5.681152
2019-03-26T02:07:46.653Z,5.701294
2019-03-26T02:07:58.418Z,5.671082
2019-03-26T02:08:10.185Z,5.681152
2019-03-26T02:08:21.973Z,5.671082
2019-03-26T02:08:33.746Z,5.681152
2019-03-26T02:08:45.514Z,5.701294
2019-03-26T02:08:57.272Z,5.681152
2019-03-26T02:09:09.059Z,5.671082
2019-03-26T02:09:20.819Z,5.671082
2019-03-26T02:09:32.578Z,5.681152
2019-03-26T02:09:44.347Z,5.681152
2019-03-26T02:09:56.097Z,5.671082
2019-03-26T02:10:07.867Z,5.681152
2019-03-26T02:10:19.642Z,5.671082
2019-03-26T02:10:31.426Z,5.661011
2019-03-26T02:10:43.170Z,5.661011
2019-03-26T02:10:54.972Z,5.661011
2019-03-26T02:11:06.761Z,5.671082
2019-03-26T02:11:18.527Z,5.671082
2019-03-26T02:11:30.282Z,5.671082
2019-03-26T02:11:42.090Z,5.661011
2019-03-26T02:11:53.976Z,5.661011
2019-03-26T02:12:05.781Z,5.661011
2019-03-26T02:12:17.512Z,5.640869
2019-03-26T02:12:29.279Z,5.661011
2019-03-26T02:12:41.022Z,5.661011
2019-03-26T02:12:52.786Z,5.661011
2019-03-26T02:13:04.559Z,5.661011
2019-03-26T02:13:16.322Z,5.661011
2019-03-26T02:13:28.103Z,5.671082
2019-03-26T02:13:39.869Z,5.671082
2019-03-26T02:13:51.649Z,5.671082
2019-03-26T02:14:03.437Z,5.661011
2019-03-26T02:14:15.183Z,5.671082
2019-03-26T02:14:26.993Z,5.661011
2019-03-26T02:14:38.725Z,5.661011
2019-03-26T02:14:50.503Z,5.661011
2019-03-26T02:15:02.267Z,5.640869
2019-03-26T02:15:14.038Z,5.661011
2019-03-26T02:15:25.803Z,5.640869
2019-03-26T02:15:37.563Z,5.640869
2019-03-26T02:15:49.325Z,5.640869
2019-03-26T02:16:01.088Z,5.661011
2019-03-26T02:16:12.835Z,5.661011
2019-03-26T02:16:24.609Z,5.630798
2019-03-26T02:16:36.380Z,5.640869
2019-03-26T02:16:48.213Z,5.630798
2019-03-26T02:16:59.966Z,5.630798
2019-03-26T02:17:11.764Z,5.630798
2019-03-26T02:17:23.551Z,5.630798
2019-03-26T02:17:35.442Z,5.600586
2019-03-26T02:17:47.190Z,5.600586
2019-03-26T02:17:58.950Z,5.600586
2019-03-26T02:18:10.716Z,5.590515
2019-03-26T02:18:22.514Z,5.590515
2019-03-26T02:18:34.750Z,5.590515
2019-03-26T02:18:46.519Z,5.570374
2019-03-26T02:18:58.286Z,5.590515
2019-03-26T02:19:10.062Z,5.570374
2019-03-26T02:19:21.811Z,5.560303